Wichita, KS

12:21 PM CDT on September 03, 2015 (GMT -0500)
Wichita Mid-Continent | | Change Station
CLOSE
Current Station
Airport
Location: Wichita,
Elevation: 1332 ft
Nearby Weather Stations

Elev 1332 ft 37.65 °N, 97.43 °W | Updated 28 minutes ago

Mostly Cloudy
Mostly Cloudy
90 °F
Feels Like 92 °F
N
21
Wind Variable Wind from South

Today
High -- | Low -- °F
--% Chance of Precip.
Yesterday
High -- | Low -- °F
Precip. -- in
7:01 AM 7:56 PM
Waning Gibbous, 68% visible
Pressure 29.88 in
Visibility 10.0 miles
Clouds Few 15000 ft
Few 18000 ft
Mostly Cloudy 22000 ft
Heat Index 92 °F
Dew Point 65 °F
Humidity 43%
Rainfall 0.00 in
Snow Depth Not available.
UV 4 out of 12
Pollen 11.70 out of 12
Air Quality Not available.
Flu Activity Not available.
METAR KICT 031653Z 18018KT 10SM FEW150 FEW180 BKN220 32/18 A2993 RMK AO2 SLP119 T03220183
Pressure 29.88 in
Visibility 10.0 miles
Clouds Few 15000 ft
Few 18000 ft
Mostly Cloudy 22000 ft
Heat Index 92 °F
Dew Point 65 °F
Humidity 43%
Rainfall 0.00 in
Snow Depth Not available.
UV 4 out of 12
Pollen 11.70 out of 12
Air Quality Not available.
Flu Activity Not available.
METAR KICT 031653Z 18018KT 10SM FEW150 FEW180 BKN220 32/18 A2993 RMK AO2 SLP119 T03220183

10-Day Weather Forecast

×

Almanac

Astronomy

Sep. 03, 2015 Rise Set
Actual Time
Civil Twilight
Nautical Twilight
Astronomical Twilight
Moon
Length of Visible Light
Length of Day
Tomorrow will be .
, % of the Moon is Illuminated

Today's Extremes

State Highs State Lows

Community

WunderPhotos

Upload Photos

1,851,990 photos uploaded!

WunderBlogs® & News

Nearby

Air Quality

  Air Quality AQ Index Pollutant
Not available.

Snow Depth

Station Depth Elevation

Earthquake Activity

City Distance Mag. Time & Date
Minimum magnitude displayed is 2.5.

Coastal Water Temperatures

Place Temperature

Stations

Nearby Weather Stations

Station Location Temp. Windchill Dew Point Humidity Wind Precip. Elev Updated Type